createdAt,value
2019-05-10T00:00:07.732Z,1.80
2019-05-10T00:02:54.270Z,2.10
2019-05-10T00:05:40.889Z,3.33
2019-05-10T00:08:27.417Z,5.80
2019-05-10T00:11:27.193Z,2.20
2019-05-10T00:14:02.323Z,2.40
2019-05-10T00:16:30.848Z,3.47
2019-05-10T00:18:59.601Z,2.03
2019-05-10T00:21:28.121Z,2.00
2019-05-10T00:23:56.655Z,2.27
2019-05-10T00:26:25.187Z,2.20
2019-05-10T00:28:53.708Z,3.43
2019-05-10T00:31:22.231Z,2.13
2019-05-10T00:33:50.735Z,4.07
2019-05-10T00:36:19.377Z,2.10
2019-05-10T00:38:47.884Z,1.90
2019-05-10T00:41:16.408Z,2.80
2019-05-10T00:43:44.919Z,1.77
2019-05-10T00:46:13.448Z,2.80
2019-05-10T00:48:41.970Z,2.30
2019-05-10T00:51:10.563Z,2.63
2019-05-10T00:53:39.398Z,2.27
2019-05-10T00:56:07.918Z,2.23
2019-05-10T00:58:36.415Z,3.40
2019-05-10T01:01:05.002Z,3.00
2019-05-10T01:03:33.527Z,2.27
2019-05-10T01:06:02.068Z,5.27
2019-05-10T01:08:30.919Z,3.23
2019-05-10T01:10:59.495Z,7.00
2019-05-10T01:13:28.036Z,3.70
2019-05-10T01:15:56.591Z,3.83
2019-05-10T01:18:25.107Z,2.50
2019-05-10T01:20:53.933Z,3.47
2019-05-10T01:23:22.465Z,4.30
2019-05-10T01:25:50.977Z,2.53
2019-05-10T01:28:19.491Z,2.87
2019-05-10T01:30:48.167Z,2.80
2019-05-10T01:33:16.707Z,6.30
2019-05-10T01:35:45.212Z,4.50
2019-05-10T01:38:13.734Z,4.50
2019-05-10T01:40:42.239Z,4.13
2019-05-10T01:43:10.740Z,3.00
2019-05-10T01:45:39.240Z,4.13
2019-05-10T01:48:07.756Z,8.43
2019-05-10T01:50:36.355Z,5.73
2019-05-10T01:53:05.311Z,2.20
2019-05-10T01:55:33.815Z,3.87
2019-05-10T01:58:02.350Z,3.80
2019-05-10T02:00:30.870Z,3.27
2019-05-10T02:02:59.657Z,3.03
2019-05-10T02:05:28.174Z,3.80
2019-05-10T02:07:56.660Z,3.33
2019-05-10T02:10:25.163Z,4.70
2019-05-10T02:12:53.680Z,3.53
2019-05-10T02:15:22.192Z,4.73
2019-05-10T02:17:50.789Z,3.33
2019-05-10T02:20:19.299Z,3.10
2019-05-10T02:22:47.828Z,3.17
2019-05-10T02:25:16.353Z,4.00
2019-05-10T02:27:44.867Z,3.60
2019-05-10T02:30:13.420Z,3.40
2019-05-10T02:32:41.981Z,4.37
2019-05-10T02:35:10.494Z,4.00
2019-05-10T02:37:39.026Z,3.80
2019-05-10T02:40:08.397Z,3.80
2019-05-10T02:42:36.921Z,3.00
2019-05-10T02:45:05.750Z,4.13
2019-05-10T02:47:34.291Z,3.93
2019-05-10T02:50:02.955Z,6.43
2019-05-10T02:52:31.430Z,5.73
2019-05-10T02:54:59.919Z,5.87
2019-05-10T02:57:28.434Z,4.30
2019-05-10T02:59:56.940Z,4.50
2019-05-10T03:02:25.488Z,4.17
2019-05-10T03:04:54.109Z,4.77
2019-05-10T03:07:22.920Z,4.20
2019-05-10T03:09:51.441Z,8.30
2019-05-10T03:12:24.141Z,4.27
2019-05-10T03:14:57.269Z,4.40
2019-05-10T03:17:26.170Z,4.43
2019-05-10T03:19:54.835Z,4.50
2019-05-10T03:22:24.721Z,4.60
2019-05-10T03:24:53.501Z,4.40
2019-05-10T03:27:22.020Z,4.00
2019-05-10T03:29:50.587Z,5.07
2019-05-10T03:32:19.294Z,3.80
2019-05-10T03:34:47.867Z,4.47
2019-05-10T03:37:16.352Z,4.10
2019-05-10T03:39:44.916Z,4.37
2019-05-10T03:42:13.338Z,4.90
2019-05-10T03:44:41.846Z,4.77
2019-05-10T03:47:10.329Z,5.03
2019-05-10T03:49:39.278Z,4.57
2019-05-10T03:52:07.767Z,4.00
2019-05-10T03:54:36.304Z,4.17
2019-05-10T03:57:12.793Z,5.13
2019-05-10T03:59:35.037Z,8.07
2019-05-10T04:02:03.528Z,5.77
2019-05-10T04:04:32.039Z,5.60
2019-05-10T04:07:00.552Z,4.97
2019-05-10T04:09:29.041Z,5.63
2019-05-10T04:11:57.615Z,4.80
2019-05-10T04:14:26.186Z,4.73
2019-05-10T04:16:54.698Z,5.27
2019-05-10T04:19:23.503Z,5.07
2019-05-10T04:21:52.083Z,5.13
2019-05-10T04:24:20.913Z,4.83
2019-05-10T04:26:49.440Z,5.53
2019-05-10T04:29:17.970Z,4.43
2019-05-10T04:31:46.480Z,4.63
2019-05-10T04:34:15.052Z,4.30
2019-05-10T04:36:43.635Z,4.90
2019-05-10T04:39:12.449Z,4.80
2019-05-10T04:41:41.011Z,5.37
2019-05-10T04:44:09.935Z,5.40
2019-05-10T04:46:38.418Z,6.07
2019-05-10T04:49:07.036Z,5.43
2019-05-10T04:51:35.522Z,6.30
2019-05-10T04:54:04.055Z,7.03
2019-05-10T04:56:32.566Z,7.23
2019-05-10T04:59:01.088Z,5.90
2019-05-10T05:01:29.677Z,6.10
2019-05-10T05:03:58.157Z,5.60
2019-05-10T05:06:26.660Z,4.93
2019-05-10T05:08:55.161Z,7.03
2019-05-10T05:11:23.702Z,5.90
2019-05-10T05:13:52.191Z,5.53
2019-05-10T05:16:20.778Z,5.13
2019-05-10T05:18:49.440Z,5.10
2019-05-10T05:21:17.931Z,4.70
2019-05-10T05:23:46.410Z,4.60
2019-05-10T05:26:14.891Z,4.40
2019-05-10T05:28:43.388Z,4.57
2019-05-10T05:31:11.868Z,3.90
2019-05-10T05:33:40.355Z,4.30
2019-05-10T05:36:08.865Z,3.87
2019-05-10T05:38:40.464Z,4.93
2019-05-10T05:41:07.623Z,4.03
2019-05-10T05:43:45.337Z,6.13
2019-05-10T05:46:06.455Z,16.33
2019-05-10T05:48:40.296Z,6.20
2019-05-10T05:51:05.164Z,5.73
2019-05-10T05:53:35.908Z,4.00
2019-05-10T05:56:12.799Z,6.33
2019-05-10T05:58:37.974Z,3.93
2019-05-10T06:01:04.408Z,7.03
2019-05-10T06:03:32.916Z,3.90
2019-05-10T06:06:01.506Z,3.23
2019-05-10T06:08:30.377Z,3.23
2019-05-10T06:10:59.984Z,3.70
2019-05-10T06:13:31.019Z,3.93
2019-05-10T06:16:00.434Z,2.93
2019-05-10T06:18:29.367Z,7.20
2019-05-10T06:20:58.175Z,3.10
2019-05-10T06:23:29.135Z,4.10
2019-05-10T06:25:57.295Z,3.67
2019-05-10T06:28:42.947Z,4.80
2019-05-10T06:30:56.685Z,3.87
2019-05-10T06:33:25.207Z,3.47
2019-05-10T06:35:53.990Z,3.63
2019-05-10T06:38:22.513Z,4.10
2019-05-10T06:40:51.010Z,6.63
2019-05-10T06:43:19.509Z,3.57
2019-05-10T06:45:52.570Z,7.60
2019-05-10T06:48:25.957Z,3.37
2019-05-10T06:50:48.724Z,2.37
2019-05-10T06:53:17.281Z,4.23
2019-05-10T06:55:45.761Z,2.53
2019-05-10T06:58:14.337Z,2.43
2019-05-10T07:00:44.655Z,2.40
2019-05-10T07:03:13.055Z,3.00
2019-05-10T07:05:41.550Z,2.30
2019-05-10T07:08:19.726Z,2.27
2019-05-10T07:10:40.272Z,3.77
2019-05-10T07:13:08.799Z,2.60
2019-05-10T07:15:42.006Z,3.27
2019-05-10T07:18:07.832Z,2.00
2019-05-10T07:20:36.361Z,2.43
2019-05-10T07:23:06.092Z,1.70
2019-05-10T07:25:37.932Z,2.70
2019-05-10T07:28:09.570Z,1.87
2019-05-10T07:30:36.542Z,2.30
2019-05-10T07:33:05.071Z,1.87
2019-05-10T07:35:36.916Z,1.60
2019-05-10T07:41:32.375Z,1.83
2019-05-10T07:44:08.106Z,1.83
2019-05-10T07:46:31.176Z,2.10
2019-05-10T07:48:59.713Z,3.50
2019-05-10T07:51:28.778Z,1.70
2019-05-10T07:54:04.786Z,1.33
2019-05-10T07:56:28.712Z,1.50
2019-05-10T07:59:00.467Z,2.30
2019-05-10T08:01:32.174Z,2.87
2019-05-10T08:03:59.179Z,6.17
2019-05-10T08:06:33.903Z,2.00
2019-05-10T08:09:01.919Z,2.80
2019-05-10T08:11:28.661Z,1.87
2019-05-10T08:14:05.856Z,1.30
2019-05-10T08:16:29.050Z,3.03
2019-05-10T08:19:00.966Z,2.47
2019-05-10T08:21:26.779Z,3.37
2019-05-10T08:23:59.029Z,2.40
2019-05-10T08:26:25.528Z,1.37
2019-05-10T08:28:54.031Z,2.10
2019-05-10T08:31:25.938Z,3.60
2019-05-10T08:33:58.340Z,1.37
2019-05-10T08:36:22.943Z,1.10
2019-05-10T08:39:04.977Z,1.60
2019-05-10T08:44:16.579Z,1.30
2019-05-10T08:46:41.204Z,2.50
2019-05-10T08:49:07.276Z,1.73
2019-05-10T08:51:44.185Z,1.53
2019-05-10T08:54:06.044Z,1.60
2019-05-10T08:56:34.634Z,1.13
2019-05-10T08:59:04.045Z,2.03
2019-05-10T09:01:42.815Z,1.80
2019-05-10T09:04:06.887Z,1.43
2019-05-10T09:06:33.259Z,2.50
2019-05-10T09:09:03.566Z,2.00
2019-05-10T09:11:32.815Z,1.60
2019-05-10T09:14:03.212Z,1.07
2019-05-10T09:16:39.186Z,1.10
2019-05-10T09:19:02.647Z,2.13
2019-05-10T09:21:32.199Z,1.83
2019-05-10T09:24:03.402Z,1.70
2019-05-10T09:26:32.185Z,1.63
2019-05-10T09:29:01.636Z,1.63
2019-05-10T09:31:32.691Z,2.00
2019-05-10T09:34:02.480Z,1.37
2019-05-10T09:36:36.035Z,1.37
2019-05-10T09:39:03.369Z,1.80
2019-05-10T09:41:36.068Z,1.20
2019-05-10T09:44:03.026Z,1.23
2019-05-10T09:46:32.445Z,1.50
2019-05-10T09:49:13.722Z,1.30
2019-05-10T09:51:33.122Z,0.97
2019-05-10T09:54:01.529Z,1.37
2019-05-10T09:56:32.981Z,0.80
2019-05-10T09:59:00.733Z,1.37
2019-05-10T10:01:29.264Z,1.73
2019-05-10T10:04:01.658Z,1.10
2019-05-10T10:06:29.853Z,5.07
2019-05-10T10:09:01.040Z,2.00
2019-05-10T10:11:28.720Z,1.10
2019-05-10T10:14:00.021Z,1.20
2019-05-10T10:16:28.176Z,1.00
2019-05-10T10:18:56.840Z,1.83
2019-05-10T10:21:34.940Z,3.67
2019-05-10T10:23:59.951Z,2.10
2019-05-10T10:26:26.887Z,1.90
2019-05-10T10:28:59.508Z,1.50
2019-05-10T10:31:30.462Z,4.00
2019-05-10T10:33:59.650Z,0.97
2019-05-10T10:36:27.448Z,0.90
2019-05-10T10:38:56.212Z,0.87
2019-05-10T10:41:31.194Z,1.60
2019-05-10T10:43:55.019Z,1.60
2019-05-10T10:46:23.598Z,1.23
2019-05-10T10:48:52.111Z,1.20
2019-05-10T10:51:20.633Z,2.00
2019-05-10T10:53:49.199Z,1.30
2019-05-10T10:56:17.773Z,1.10
2019-05-10T10:58:49.577Z,2.60
2019-05-10T11:01:21.707Z,0.77
2019-05-10T11:03:48.886Z,1.00
2019-05-10T11:06:17.412Z,1.17
2019-05-10T11:08:46.194Z,0.70
2019-05-10T11:11:14.893Z,2.70
2019-05-10T11:13:45.935Z,1.70
2019-05-10T11:16:15.690Z,2.50
2019-05-10T11:18:44.473Z,1.20
2019-05-10T11:21:12.979Z,1.37
2019-05-10T11:23:42.106Z,0.90
2019-05-10T11:26:10.977Z,1.37
2019-05-10T11:28:43.882Z,1.27
2019-05-10T11:31:11.378Z,1.20
2019-05-10T11:33:41.577Z,1.43
2019-05-10T11:36:11.429Z,1.83
2019-05-10T11:38:42.050Z,0.80
2019-05-10T11:41:13.647Z,0.80
2019-05-10T11:43:41.936Z,1.00
2019-05-10T11:46:11.761Z,0.90
2019-05-10T11:48:42.214Z,0.97
2019-05-10T11:51:12.449Z,1.30
2019-05-10T11:56:13.989Z,1.43
2019-05-10T11:58:45.967Z,1.10
2019-05-10T12:01:17.351Z,0.73
2019-05-10T12:03:42.387Z,1.03
2019-05-10T12:06:12.194Z,1.60
2019-05-10T12:08:41.840Z,1.47
2019-05-10T12:11:25.508Z,1.60
2019-05-10T12:13:40.890Z,0.70
2019-05-10T12:16:12.434Z,0.80
2019-05-10T12:18:46.314Z,1.07
2019-05-10T12:21:11.333Z,2.50
2019-05-10T12:23:49.383Z,3.37
2019-05-10T12:26:18.021Z,1.53
2019-05-10T12:28:40.917Z,1.00
2019-05-10T12:31:15.126Z,2.17
2019-05-10T12:33:42.900Z,1.10
2019-05-10T12:36:22.377Z,0.70
2019-05-10T12:38:41.766Z,1.00
2019-05-10T12:41:10.283Z,1.40
2019-05-10T12:43:40.871Z,1.10
2019-05-10T12:46:11.107Z,2.17
2019-05-10T12:48:39.900Z,0.90
2019-05-10T12:51:11.863Z,1.30
2019-05-10T12:53:44.466Z,1.30
2019-05-10T12:56:08.883Z,3.23
2019-05-10T12:58:37.425Z,2.00
2019-05-10T13:01:05.926Z,0.93
2019-05-10T13:03:34.440Z,1.13
2019-05-10T13:06:02.974Z,2.87
2019-05-10T13:08:31.806Z,1.80
2019-05-10T13:11:00.465Z,0.80
2019-05-10T13:13:29.975Z,1.10
2019-05-10T13:16:03.713Z,1.00
2019-05-10T13:18:53.395Z,1.47
2019-05-10T13:20:59.656Z,1.40
2019-05-10T13:23:28.148Z,3.27
2019-05-10T13:25:56.766Z,1.17
2019-05-10T13:28:25.266Z,0.90
2019-05-10T13:30:53.829Z,0.80
2019-05-10T13:33:28.888Z,1.17
2019-05-10T13:35:56.497Z,1.40
2019-05-10T13:38:23.161Z,0.80
2019-05-10T13:40:51.660Z,1.10
2019-05-10T13:43:26.434Z,1.93
2019-05-10T13:45:50.462Z,3.03
2019-05-10T13:48:18.973Z,0.80
2019-05-10T13:50:47.497Z,1.27
2019-05-10T13:53:21.077Z,0.80
2019-05-10T13:55:46.220Z,0.93
2019-05-10T13:58:15.105Z,1.83
2019-05-10T14:00:44.118Z,1.73
2019-05-10T14:03:13.571Z,1.03
2019-05-10T14:05:42.168Z,1.33
2019-05-10T14:08:10.668Z,1.63
2019-05-10T14:10:39.181Z,1.40
2019-05-10T14:13:07.664Z,1.10
2019-05-10T14:15:36.163Z,1.40
2019-05-10T14:18:04.686Z,0.70
2019-05-10T14:20:33.209Z,2.13
2019-05-10T14:23:01.779Z,0.83
2019-05-10T14:25:36.152Z,1.03
2019-05-10T14:28:01.250Z,1.50
2019-05-10T14:30:30.251Z,0.80
2019-05-10T14:32:58.737Z,1.33
2019-05-10T14:35:27.396Z,1.00
2019-05-10T14:38:06.916Z,0.70
2019-05-10T14:40:28.428Z,1.83
2019-05-10T14:42:56.569Z,1.77
2019-05-10T14:45:25.165Z,0.93
2019-05-10T14:47:53.731Z,1.43
2019-05-10T14:50:26.233Z,1.53
2019-05-10T14:52:52.719Z,1.03
2019-05-10T14:55:21.260Z,0.80
2019-05-10T14:57:49.794Z,1.57
2019-05-10T15:00:18.590Z,1.20
2019-05-10T15:02:47.093Z,0.80
2019-05-10T15:05:18.029Z,1.47
2019-05-10T15:07:45.828Z,1.80
2019-05-10T15:10:14.377Z,1.57
2019-05-10T15:12:43.154Z,1.80
2019-05-10T15:15:11.739Z,0.67
2019-05-10T15:17:40.611Z,4.13
2019-05-10T15:20:09.125Z,1.40
2019-05-10T15:22:37.694Z,1.60
2019-05-10T15:25:06.581Z,0.93
2019-05-10T15:27:35.090Z,2.33
2019-05-10T15:30:05.995Z,3.20
2019-05-10T15:32:34.098Z,0.80
2019-05-10T15:35:07.161Z,1.10
2019-05-10T15:37:32.932Z,1.17
2019-05-10T15:40:06.238Z,1.93
2019-05-10T15:42:36.342Z,1.00
2019-05-10T15:45:05.161Z,1.30
2019-05-10T15:47:32.350Z,1.60
2019-05-10T15:50:01.620Z,0.83
2019-05-10T15:52:30.269Z,1.10
2019-05-10T15:54:58.817Z,1.40
2019-05-10T15:57:27.322Z,2.80
2019-05-10T15:59:59.123Z,0.80
2019-05-10T16:02:26.470Z,1.03
2019-05-10T16:04:55.756Z,2.30
2019-05-10T16:07:24.360Z,1.03
2019-05-10T16:09:54.472Z,1.40
2019-05-10T16:12:23.083Z,1.10
2019-05-10T16:14:51.654Z,2.03
2019-05-10T16:17:23.832Z,2.10
2019-05-10T16:19:58.897Z,1.10
2019-05-10T16:22:25.383Z,1.20
2019-05-10T16:24:50.907Z,2.20
2019-05-10T16:27:19.436Z,0.83
2019-05-10T16:29:47.981Z,1.50
2019-05-10T16:32:16.523Z,1.10
2019-05-10T16:34:45.046Z,2.13
2019-05-10T16:37:13.640Z,6.00
2019-05-10T16:39:42.223Z,1.17
2019-05-10T16:42:10.829Z,1.50
2019-05-10T16:44:39.489Z,3.07
2019-05-10T16:47:08.176Z,1.37
2019-05-10T16:49:36.682Z,1.23
2019-05-10T16:52:05.230Z,2.23
2019-05-10T16:54:33.740Z,3.73
2019-05-10T16:57:02.393Z,1.10
2019-05-10T16:59:31.457Z,1.20
2019-05-10T17:02:04.125Z,1.20
2019-05-10T17:04:32.091Z,2.40
2019-05-10T17:07:00.889Z,1.13
2019-05-10T17:09:29.439Z,2.30
2019-05-10T17:11:59.182Z,0.97
2019-05-10T17:14:27.837Z,1.07
2019-05-10T17:16:58.805Z,2.03
2019-05-10T17:19:27.996Z,1.00
2019-05-10T17:21:57.459Z,0.80
2019-05-10T17:24:26.096Z,1.77
2019-05-10T17:26:54.678Z,1.30
2019-05-10T17:29:23.232Z,1.00
2019-05-10T17:31:51.740Z,1.30
2019-05-10T17:34:29.031Z,1.27
2019-05-10T17:36:51.566Z,1.10
2019-05-10T17:39:26.073Z,1.57
2019-05-10T17:41:51.375Z,0.90
2019-05-10T17:44:23.132Z,2.37
2019-05-10T17:46:55.439Z,1.80
2019-05-10T17:49:20.969Z,1.93
2019-05-10T17:51:49.491Z,2.63
2019-05-10T17:54:17.994Z,1.37
2019-05-10T17:56:46.559Z,3.00
2019-05-10T17:59:15.137Z,2.00
2019-05-10T18:01:43.725Z,0.70
2019-05-10T18:04:12.231Z,1.53
2019-05-10T18:06:40.734Z,1.73
2019-05-10T18:09:09.471Z,2.30
2019-05-10T18:11:42.779Z,5.70
2019-05-10T18:14:12.499Z,2.73
2019-05-10T18:16:41.801Z,4.43
2019-05-10T18:19:08.735Z,3.97
2019-05-10T18:21:37.232Z,2.07
2019-05-10T18:24:05.816Z,4.50
2019-05-10T18:26:39.713Z,3.60
2019-05-10T18:29:04.583Z,2.20
2019-05-10T18:31:33.092Z,2.53
2019-05-10T18:34:01.576Z,1.40
2019-05-10T18:36:50.303Z,1.17
2019-05-10T18:39:00.734Z,2.97
2019-05-10T18:41:29.384Z,1.20
2019-05-10T18:43:57.894Z,1.23
2019-05-10T18:46:26.406Z,2.07
2019-05-10T18:48:54.987Z,1.60
2019-05-10T18:51:24.569Z,2.00
2019-05-10T18:53:53.772Z,2.70
2019-05-10T18:56:25.446Z,2.50
2019-05-10T18:58:52.563Z,3.13
2019-05-10T19:01:21.076Z,1.43
2019-05-10T19:03:49.691Z,2.43
2019-05-10T19:06:18.212Z,2.13
2019-05-10T19:08:47.031Z,1.93
2019-05-10T19:11:15.632Z,2.77
2019-05-10T19:13:48.024Z,1.53
2019-05-10T19:16:14.456Z,3.00
2019-05-10T19:18:42.954Z,4.10
2019-05-10T19:21:11.506Z,1.83
2019-05-10T19:23:40.015Z,2.20
2019-05-10T19:26:08.549Z,2.20
2019-05-10T19:28:37.047Z,1.53
2019-05-10T19:31:05.559Z,2.47
2019-05-10T19:33:36.631Z,2.83
2019-05-10T19:36:12.545Z,3.23
2019-05-10T19:38:34.865Z,2.07
2019-05-10T19:41:03.646Z,2.00
2019-05-10T19:43:32.151Z,1.60
2019-05-10T19:46:00.708Z,1.70
2019-05-10T19:48:35.133Z,2.10
2019-05-10T19:51:02.899Z,2.90
2019-05-10T19:53:29.885Z,2.53
2019-05-10T19:55:59.213Z,1.93
2019-05-10T19:58:32.310Z,2.33
2019-05-10T20:00:58.258Z,2.00
2019-05-10T20:03:27.125Z,1.90
2019-05-10T20:05:55.652Z,2.00
2019-05-10T20:08:24.226Z,2.30
2019-05-10T20:10:52.741Z,2.80
2019-05-10T20:13:21.259Z,2.27
2019-05-10T20:15:50.176Z,2.00
2019-05-10T20:18:18.701Z,1.60
2019-05-10T20:20:47.229Z,2.00
2019-05-10T20:23:15.734Z,2.30
2019-05-10T20:25:44.602Z,3.53
2019-05-10T20:28:13.119Z,2.70
2019-05-10T20:30:41.680Z,4.30
2019-05-10T20:33:10.247Z,2.60
2019-05-10T20:35:38.995Z,3.17
2019-05-10T20:38:07.517Z,3.43
2019-05-10T20:40:37.220Z,5.97
2019-05-10T20:43:05.850Z,3.30
2019-05-10T20:45:34.345Z,1.77
2019-05-10T20:48:02.876Z,3.83
2019-05-10T20:50:31.361Z,3.90
2019-05-10T20:52:59.889Z,4.23
2019-05-10T20:55:28.370Z,6.40
2019-05-10T20:57:56.875Z,7.53
2019-05-10T21:00:25.408Z,9.83
2019-05-10T21:02:54.343Z,5.50
2019-05-10T21:05:22.889Z,16.67
2019-05-10T21:07:51.393Z,19.60
2019-05-10T21:10:19.941Z,15.90
2019-05-10T21:12:48.763Z,11.17
2019-05-10T21:15:17.301Z,11.63
2019-05-10T21:17:46.041Z,6.30
2019-05-10T21:20:14.689Z,6.03
2019-05-10T21:22:43.205Z,13.30
2019-05-10T21:25:11.710Z,10.37
2019-05-10T21:27:40.536Z,10.57
2019-05-10T21:30:09.211Z,8.33
2019-05-10T21:32:37.807Z,6.50
2019-05-10T21:35:06.316Z,7.60
2019-05-10T21:37:35.169Z,6.77
2019-05-10T21:40:03.804Z,5.53
2019-05-10T21:42:32.318Z,4.27
2019-05-10T21:45:01.100Z,4.60
2019-05-10T21:47:30.054Z,4.20
2019-05-10T21:49:58.601Z,3.07
2019-05-10T21:52:27.341Z,2.87
2019-05-10T21:54:55.857Z,2.77
2019-05-10T21:57:24.351Z,3.03
2019-05-10T21:59:53.041Z,3.77
2019-05-10T22:02:21.566Z,2.90
2019-05-10T22:04:50.159Z,3.67
2019-05-10T22:07:18.691Z,4.57
2019-05-10T22:09:47.281Z,5.17
2019-05-10T22:12:15.783Z,6.43
2019-05-10T22:14:44.718Z,5.33
2019-05-10T22:17:13.216Z,3.50
2019-05-10T22:19:41.728Z,2.67
2019-05-10T22:22:10.262Z,3.87
2019-05-10T22:24:38.774Z,3.50
2019-05-10T22:27:07.614Z,3.63
2019-05-10T22:29:36.125Z,2.30
2019-05-10T22:32:04.627Z,2.17
2019-05-10T22:34:33.157Z,2.60
2019-05-10T22:37:01.694Z,3.40
2019-05-10T22:39:30.270Z,8.50
2019-05-10T22:41:58.840Z,7.83
2019-05-10T22:44:27.371Z,6.77
2019-05-10T22:46:55.911Z,4.60
2019-05-10T22:49:24.455Z,4.50
2019-05-10T22:51:52.951Z,4.07
2019-05-10T22:54:21.460Z,4.97
2019-05-10T22:56:50.417Z,4.17
2019-05-10T22:59:18.943Z,2.87
2019-05-10T23:01:47.485Z,3.43
2019-05-10T23:04:16.021Z,2.40
2019-05-10T23:06:44.570Z,3.70
2019-05-10T23:09:24.305Z,2.90
2019-05-10T23:11:43.397Z,2.50
2019-05-10T23:14:11.916Z,3.27
2019-05-10T23:16:40.433Z,2.43
2019-05-10T23:19:08.952Z,2.87
2019-05-10T23:21:37.472Z,3.63
2019-05-10T23:24:10.720Z,3.10
2019-05-10T23:26:39.229Z,3.17
2019-05-10T23:29:07.755Z,3.50
2019-05-10T23:31:36.557Z,5.40
2019-05-10T23:34:05.422Z,3.40
2019-05-10T23:36:33.930Z,4.40
2019-05-10T23:39:02.837Z,3.00
2019-05-10T23:41:31.354Z,3.60
2019-05-10T23:43:59.865Z,3.60
2019-05-10T23:46:28.413Z,4.10
2019-05-10T23:49:00.170Z,8.03
2019-05-10T23:51:28.677Z,3.90
2019-05-10T23:53:57.204Z,4.33
2019-05-10T23:56:25.732Z,3.13
2019-05-10T23:58:54.226Z,3.77
